Station: Ngayawili (Elcho Island)  

  Atmospheric Gas Attenuation - ITU Rec 676-11   ----------------- dB/100km -----------------
Date Time Temp RH % AH g/m3 Dew Point Wind Direction Speed kph Gust kph Barometer mB Rainfall Since 9am 24GHz 47GHz 76GHz 122GHz 134GHz 241GHz
11/05 04:40 25.2 96 22.35 24.5 11 13 1011.7 0.4 48.1 46.5 93.4 247.2 277.7 964.6
11/05 04:30 25.2 96 22.35 24.5 11 17 1011.5 0.4 48.1 46.5 93.4 247.2 277.7 964.5
11/05 04:20 25.3 95 22.24 24.4 13 13 1011.4 0.4 47.8 46.2 92.7 245.4 275.4 956.8
11/05 04:10 25.3 95 22.24 24.4 15 15 1011.3 0.4 47.9 46.2 92.7 245.3 275.4 956.7
11/05 04:00 25.3 95 22.24 24.4 11 17 1011.4 0.4 47.8 46.2 92.7 245.4 275.4 956.8
11/05 03:50 25.4 95 22.37 24.5 11 13 1011.4 0.4 48.1 46.4 93.2 246.8 277.2 963.0
11/05 03:40 25.3 95 22.24 24.4 11 13 1011.4 0.4 47.8 46.2 92.7 245.4 275.4 956.8
11/05 03:30 25.3 95 22.24 24.4 11 15 1011.4 0.4 47.8 46.2 92.7 245.4 275.4 956.8
11/05 03:20 25.3 95 22.24 24.4 11 13 1011.5 0.4 47.8 46.2 92.7 245.4 275.5 956.9
11/05 03:10 25.3 95 22.24 24.4 11 15 1011.6 0.4 47.8 46.2 92.7 245.4 275.5 956.9
11/05 03:00 25.2 95 22.12 24.3 9 13 1011.8 0.4 47.6 46.0 92.2 244.1 273.9 951.4
11/05 02:50 25.2 95 22.12 24.3 9 11 1011.9 0.4 47.6 46.0 92.2 244.2 273.9 951.5
11/05 02:40 25.2 95 22.12 24.3 9 11 1011.9 0.4 47.6 46.0 92.2 244.2 273.9 951.5
11/05 02:30 25.3 96 22.47 24.6 9 13 1012 0.4 48.3 46.7 93.9 248.6 279.4 970.5
11/05 02:20 25.3 96 22.47 24.6 9 11 1012.1 0.4 48.3 46.7 93.9 248.6 279.4 970.6
11/05 02:10 25.3 96 22.47 24.6 7 9 1012.2 0.4 48.3 46.7 93.9 248.6 279.4 970.6
11/05 02:00 25.3 95 22.24 24.4 9 13 1012.2 0.4 47.8 46.2 92.7 245.5 275.6 957.3
11/05 01:50 25.4 95 22.37 24.5 9 11 1012.2 0.4 48.1 46.4 93.3 246.9 277.4 963.5
11/05 01:40 25.4 95 22.37 24.5 11 13 1012.3 0.4 48.1 46.4 93.3 247.0 277.4 963.6
11/05 01:30 25.4 95 22.37 24.5 9 11 1012.4 0.4 48.1 46.4 93.3 247.0 277.4 963.6
11/05 01:20 25.4 95 22.37 24.5 7 9 1012.6 0.4 48.1 46.5 93.3 247.0 277.4 963.8
11/05 01:10 25.5 95 22.49 24.6 9 11 1012.7 0.4 48.3 46.7 93.8 248.3 279.1 969.5
11/05 01:00 25.6 94 22.38 24.6 9 15 1012.8 0.4 48.1 46.4 93.1 246.5 276.9 961.9
11/05 00:50 25.6 94 22.38 24.6 7 9 1012.9 0.4 48.1 46.4 93.1 246.5 276.9 961.9
11/05 00:40 25.7 93 22.27 24.5 9 11 1013.1 0.4 47.8 46.1 92.4 244.7 274.7 954.4
11/05 00:30 25.8 93 22.39 24.6 11 15 1013.1 0.4 48.1 46.3 92.9 246.0 276.3 960.0
11/05 00:20 25.9 92 22.27 24.5 9 15 1013.2 0.4 47.8 46.0 92.2 244.1 274.0 951.9
11/05 00:10 26 92 22.4 24.6 11 13 1013.2 0.4 48.1 46.2 92.7 245.5 275.8 958.1
11/05 00:00 26.1 91 22.28 24.5 13 17 1013.3 0.4 47.8 45.9 92.0 243.6 273.4 950.0
10/05 23:50 26.2 91 22.4 24.6 11 13 1013.4 0.4 48.1 46.1 92.5 244.9 275.1 955.7
10/05 23:40 26.2 91 22.4 24.6 13 17 1013.4 0.4 48.1 46.1 92.5 244.9 275.1 955.7
10/05 23:30 26.2 91 22.4 24.6 11 19 1013.4 0.4 48.1 46.1 92.5 244.9 275.1 955.7
10/05 23:20 26.2 90 22.16 24.4 13 17 1013.3 0.4 47.5 45.6 91.3 241.7 271.1 941.9
10/05 23:10 26.3 90 22.28 24.5 17 20 1013.4 0.4 47.8 45.8 91.8 243.0 272.7 947.5
10/05 23:00 26.3 90 22.28 24.5 13 19 1013.5 0.4 47.8 45.8 91.8 243.0 272.7 947.6
10/05 22:50 26.3 91 22.53 24.7 11 19 1013.6 0.4 48.3 46.3 93.1 246.4 276.9 961.9
10/05 22:40 26.3 91 22.53 24.7 11 17 1013.7 0.4 48.3 46.3 93.1 246.4 276.9 962.0
10/05 22:30 26.3 91 22.53 24.7 11 15 1013.6 0.4 48.3 46.3 93.1 246.4 276.9 961.9
10/05 22:20 26.3 91 22.53 24.7 9 11 1013.5 0.4 48.3 46.3 93.0 246.3 276.9 961.9
10/05 22:10 26.3 91 22.53 24.7 9 11 1013.6 0.4 48.3 46.3 93.1 246.4 276.9 961.9
10/05 22:00 26.4 90 22.4 24.6 9 17 1013.5 0.4 48.0 46.0 92.3 244.3 274.3 953.2
10/05 21:50 26.4 90 22.4 24.6 13 17 1013.5 0.4 48.0 46.0 92.3 244.3 274.3 953.2
10/05 21:40 26.5 90 22.53 24.7 13 15 1013.4 0.4 48.3 46.2 92.8 245.7 276.1 959.2
10/05 21:30 26.6 89 22.4 24.6 11 20 1013.3 0.4 48.0 45.9 92.0 243.6 273.6 950.5
10/05 21:20 26.6 89 22.4 24.6 15 20 1013.3 0.4 48.0 45.9 92.0 243.6 273.6 950.5
10/05 21:10 26.6 89 22.4 24.6 11 13 1013.3 0.4 48.0 45.9 92.0 243.6 273.6 950.5
10/05 21:00 26.6 89 22.4 24.6 13 20 1013.3 0.4 48.0 45.9 92.0 243.6 273.6 950.5
10/05 20:50 26.6 88 22.15 24.4 13 17 1013.2 0.4 47.5 45.4 90.7 240.2 269.5 936.2
10/05 20:40 26.6 89 22.4 24.6 13 17 1013.1 0.4 48.0 45.9 92.0 243.5 273.5 950.3
10/05 20:30 26.5 89 22.28 24.5 11 22 1013 0.4 47.8 45.7 91.5 242.2 271.9 944.7
10/05 20:20 26.6 88 22.15 24.4 17 20 1012.9 0.4 47.5 45.4 90.7 240.2 269.4 936.0
10/05 20:10 26.6 89 22.4 24.6 13 19 1012.7 0.4 48.0 45.8 92.0 243.5 273.4 950.1
10/05 20:00 26.6 88 22.15 24.4 13 19 1012.5 0.4 47.5 45.3 90.7 240.1 269.3 935.8
10/05 19:50 26.8 87 22.14 24.5 13 15 1012.4 0.4 47.4 45.2 90.4 239.3 268.4 932.7
10/05 19:40 26.8 86 21.89 24.3 15 20 1012.3 0.4 46.9 44.7 89.1 236.0 264.4 918.5
10/05 19:30 27 85 21.88 24.3 15 24 1012.2 0.4 46.9 44.6 88.8 235.2 263.5 915.5
10/05 19:20 27.1 83 21.48 24 17 20 1012 0.4 46.0 43.7 86.7 229.7 256.7 891.9
10/05 19:10 27.3 82 21.46 24 22 32 1011.8 0.4 45.9 43.6 86.4 228.8 255.6 888.3
10/05 19:00 27.5 81 21.43 23.9 20 35 1011.6 0.4 45.8 43.4 86.0 227.7 254.4 884.2
10/05 18:50 27.6 81 21.55 24 20 30 1011.6 0.4 46.1 43.6 86.5 229.0 256.0 889.6
10/05 18:40 27.7 80 21.4 23.9 15 22 1011.4 0.4 45.8 43.2 85.6 226.7 253.2 880.1
10/05 18:30 27.7 80 21.4 23.9 15 24 1011.4 0.4 45.8 43.2 85.6 226.7 253.2 880.1
10/05 18:20 27.8 80 21.52 24 15 19 1011.2 0.4 46.0 43.4 86.1 227.9 254.8 885.4
10/05 18:10 27.8 82 22.06 24.4 15 20 1011.1 0.4 47.2 44.4 88.7 234.9 263.3 915.1
10/05 18:00 27.9 83 22.45 24.7 13 24 1010.9 0.4 48.0 45.1 90.5 239.6 269.2 935.4
10/05 17:50 28.1 81 22.15 24.5 19 22 1010.8 0.4 47.3 44.4 88.8 235.1 263.6 916.2
10/05 17:40 28.1 80 21.88 24.3 15 20 1010.7 0.4 46.7 43.9 87.4 231.5 259.3 901.3
10/05 17:30 28.2 79 21.72 24.2 20 30 1010.6 0.4 46.4 43.5 86.5 229.2 256.4 891.2
10/05 17:20 28.2 80 22 24.4 19 26 1010.5 0.4 47.0 44.1 87.9 232.7 260.8 906.5
10/05 17:10 28.3 82 22.67 24.9 11 15 1010.5 0.4 48.4 45.3 91.1 241.1 271.2 942.4
10/05 17:00 28.3 81 22.4 24.7 17 24 1010.3 0.4 47.8 44.8 89.7 237.6 266.8 927.3
10/05 16:50 28.4 81 22.52 24.8 11 17 1010.2 0.4 48.1 45.0 90.2 238.8 268.3 932.6
10/05 16:40 28.4 80 22.24 24.6 20 30 1010.1 0.4 47.5 44.4 88.8 235.2 263.9 917.1
10/05 16:30 28.3 79 21.84 24.3 15 35 1010.1 0.4 46.6 43.7 87.0 230.3 257.9 896.3
10/05 16:20 28.3 81 22.4 24.7 11 15 1010.1 0.4 47.8 44.8 89.7 237.6 266.8 927.2
10/05 16:10 28.2 82 22.55 24.8 13 15 1009.9 0.4 48.1 45.1 90.5 239.8 269.5 936.6
10/05 16:00 28.2 81 22.27 24.6 15 24 1010 0.4 47.6 44.6 89.2 236.2 265.0 921.1
10/05 15:50 28.1 80 21.88 24.3 17 22 1009.9 0.4 46.7 43.9 87.4 231.4 259.2 900.8
10/05 15:40 28.3 80 22.12 24.5 19 22 1010 0.4 47.2 44.2 88.3 233.9 262.3 911.6
10/05 15:30 28.9 75 21.43 24 15 32 1010 0.4 45.7 42.6 84.3 223.3 249.4 867.0
10/05 15:20 29.1 78 22.53 24.9 15 20 1009.9 0.4 48.0 44.6 89.4 236.7 265.9 924.3
10/05 15:10 29 75 21.55 24.1 20 26 1009.8 0.4 45.9 42.8 84.8 224.5 250.9 872.2
10/05 15:00 29.3 78 22.78 25.1 19 30 1010.1 0.4 48.5 45.0 90.4 239.3 269.2 935.8
10/05 14:50 29 83 23.84 25.8 15 17 1010.2 0.4 50.8 47.3 96.0 254.2 287.4 998.9
10/05 14:40 28.7 81 22.89 25.1 13 19 1010.2 0.4 48.8 45.5 91.6 242.7 273.2 949.5
10/05 14:30 29.1 77 22.24 24.7 24 44 1010.1 0.4 47.4 44.0 88.0 233.0 261.4 908.6
10/05 14:20 29.6 75 22.26 24.7 28 35 1010.1 0.4 47.4 43.8 87.5 231.7 259.9 903.7
10/05 14:10 29.8 80 24 26 17 22 1010.2 0.4 51.0 47.1 95.8 253.6 286.9 997.3
10/05 14:00 28.5 81 22.64 24.9 19 35 1010.3 0.4 48.3 45.2 90.7 240.1 269.9 938.1
10/05 13:50 28 87 23.66 25.6 22 28 1010.3 0.4 50.5 47.5 96.4 255.3 288.4 1002.2
10/05 13:40 27.1 92 23.81 25.7 19 22 1010.5 0.4 51.0 48.3 98.3 260.5 294.5 1023.3
10/05 13:30 27.5 84 22.23 24.6 22 39 1010.7 0.2 47.6 44.9 89.9 238.0 267.0 928.0
10/05 13:20 28.3 80 22.12 24.5 20 32 1010.8 0 47.2 44.3 88.4 234.0 262.4 912.1
10/05 13:10 29.5 74 21.84 24.4 28 33 1010.9 0 46.5 43.1 85.7 226.8 253.9 882.6
10/05 13:00 29.9 74 22.32 24.8 22 35 1010.9 0 47.4 43.8 87.5 231.7 260.0 903.8
10/05 12:50 29.5 74 21.84 24.4 28 35 1010.9 0 46.5 43.1 85.7 226.8 253.9 882.6
10/05 12:40 29.3 76 22.19 24.6 24 39 1011.2 0 47.2 43.9 87.6 231.9 260.1 904.1
10/05 12:30 28.9 78 22.29 24.7 20 33 1011.3 0 47.5 44.3 88.5 234.4 263.1 914.5
10/05 12:20 28.8 81 23.02 25.2 20 26 1011.4 0 49.1 45.8 92.2 244.3 275.1 956.2
10/05 12:10 28.5 81 22.64 24.9 22 28 1011.6 0 48.3 45.2 90.7 240.3 270.1 938.9

Last Refresh: 11-May-2026 04:46:08

Bureau of Meteorology